Kendall Tamiami Executive Airport
KTMB : now visible

Airfield :











YOU CAN JOIN US ON...

 
LOGIN :

Register | Disclaimer

   EN    FR    IT 

 









Legend :    VFR   Marginal VFR   IFR   Intensive IFR   Very Intensive IFR
Visi :
Ceiling :
>= 8 km
>= 3000ft
5 to 8 km
1000 to 3000 ft
1500m to 5 km
500 to 1000 ft
800 to 1500m
200 to 500 ft
< 800m
< 200 ft
Symbols :   Thunderstorms  Fog  Heavy snow  Heavy precipitations  Wind > 20 kt






- Airport Elevation : 8 ft


KTMB - Kendall Tamiami Executive

CURRENT METAR :
  • 220753Z 00000KT 10SM CLR 17/16 A3006 RMK AO2 SLP178 T01720156

EXPIRED METARs :
  • 220653Z 00000KT 10SM SCT050 17/16 A3008 RMK AO2 SLP185 T01670156
  • 220553Z 00000KT 10SM CLR 18/16 A3009 RMK AO2 SLP189 T01780156 10211 20172 58015
  • 220453Z 00000KT 10SM CLR 18/15 A3011 RMK AO2 SLP194 T01830150 402720139

TAF KTMB
Valid from the 22 at 06:00 until the 23 at 06:00 UTC


220533Z 2206/2306 VRB04KT P6SM FEW040
FM221400 10010KT P6SM SCT040
FM230100 VRB03KT P6SM SCT040



MET'MAP, your aeronautical weather chart ! - Copyright ORBIFLY December 2007 - Disclaimer

ORBIFLY MET'MAP TEAM :

Programming & Development : Alexandra Zaïnal
Concept & Development : Baudouin d'Aumeries
Co-Development & Prog : Marc-Olivier Méhu
Technical & hardware support : Manuel Goepfert

Contact : metmap@orbifly.com




SOURCES & CREDITS :

   NOAA       Earth
Advisory